Time;durP1;ratioP1;P1;durP2;ratioP2;P2;SDS_P1;SDS_P2;PMS_P1;PMS_P2;Temp;Humidity;BMP_temperature;BMP_pressure;BME280_temperature;BME280_humidity;BME280_pressure;Samples;Min_cycle;Max_cycle;Signal;HPM_P1;HPM_P2
2022/08/07 00:01:37;;;;;;;7.05;5.32;;;15.80;99.90;;;;;;5039155;28;20037;-59
2022/08/07 00:04:04;;;;;;;7.15;5.13;;;15.80;99.90;;;;;;5032459;28;20037;-59
2022/08/07 00:06:30;;;;;;;6.68;5.20;;;15.80;99.90;;;;;;5031630;28;20078;-59
2022/08/07 00:08:55;;;;;;;6.80;4.85;;;15.70;99.90;;;;;;5031069;28;20037;-59
2022/08/07 00:11:21;;;;;;;7.47;5.00;;;15.80;99.90;;;;;;5031597;28;20045;-59
2022/08/07 00:13:47;;;;;;;7.32;5.10;;;15.80;99.90;;;;;;5030591;28;20372;-59
2022/08/07 00:16:13;;;;;;;7.82;5.20;;;15.80;99.90;;;;;;5032617;28;20115;-59
2022/08/07 00:18:39;;;;;;;8.05;6.10;;;15.70;99.90;;;;;;5043182;28;20360;-59
2022/08/07 00:21:07;;;;;;;8.57;6.65;;;15.70;99.90;;;;;;5031718;28;20045;-59
2022/08/07 00:23:35;;;;;;;6.90;5.10;;;15.60;99.90;;;;;;5032352;28;20037;-59
2022/08/07 00:26:04;;;;;;;8.10;5.38;;;15.60;99.90;;;;;;5042833;28;20029;-60
2022/08/07 00:28:30;;;;;;;7.82;5.70;;;15.60;99.90;;;;;;5032036;28;20120;-59
2022/08/07 00:30:56;;;;;;;7.07;5.22;;;15.60;99.90;;;;;;5044310;28;20041;-59
2022/08/07 00:33:25;;;;;;;8.48;6.55;;;15.50;99.90;;;;;;5019754;28;20133;-59
2022/08/07 00:35:52;;;;;;;7.43;6.07;;;15.40;99.90;;;;;;5030559;28;20059;-59
2022/08/07 00:38:18;;;;;;;9.23;5.93;;;15.30;99.90;;;;;;5030801;28;20052;-58
2022/08/07 00:40:43;;;;;;;7.90;5.43;;;15.30;99.90;;;;;;5031252;28;20037;-59
2022/08/07 00:43:10;;;;;;;6.55;5.13;;;15.20;99.90;;;;;;5030505;28;20148;-59
2022/08/07 00:45:40;;;;;;;8.38;5.53;;;15.10;99.90;;;;;;5030753;28;20049;-59
2022/08/07 00:48:07;;;;;;;9.57;6.18;;;15.10;99.90;;;;;;5005538;28;20038;-60
2022/08/07 00:50:33;;;;;;;6.93;5.65;;;15.00;99.90;;;;;;5025945;28;20038;-58
2022/08/07 00:52:59;;;;;;;7.40;5.30;;;15.00;99.90;;;;;;5041112;28;20113;-58
2022/08/07 00:55:25;;;;;;;7.10;5.18;;;15.00;99.90;;;;;;5034173;28;20041;-59
2022/08/07 00:57:51;;;;;;;7.65;5.22;;;15.00;99.90;;;;;;5034599;28;20484;-59
2022/08/07 01:00:17;;;;;;;7.25;4.97;;;15.00;99.90;;;;;;5034729;28;20045;-58
2022/08/07 01:02:44;;;;;;;9.30;5.47;;;14.90;99.90;;;;;;5033613;28;20033;-58
2022/08/07 01:05:11;;;;;;;6.85;4.95;;;15.00;99.90;;;;;;5046285;28;20390;-59
2022/08/07 01:07:37;;;;;;;8.10;5.95;;;14.90;99.90;;;;;;5034700;28;20458;-58
2022/08/07 01:10:03;;;;;;;7.55;5.43;;;14.90;99.90;;;;;;5024236;28;20063;-58
2022/08/07 01:12:30;;;;;;;7.47;5.55;;;14.90;99.90;;;;;;5032220;28;20374;-58
2022/08/07 01:14:57;;;;;;;7.90;5.72;;;14.90;99.90;;;;;;5034697;28;20041;-58
2022/08/07 01:17:23;;;;;;;7.95;5.72;;;14.90;99.90;;;;;;5033683;28;20446;-59
2022/08/07 01:19:50;;;;;;;8.40;6.28;;;14.90;99.90;;;;;;5034577;28;20431;-58
2022/08/07 01:22:16;;;;;;;8.00;6.00;;;14.90;99.90;;;;;;5033142;28;20433;-59
2022/08/07 01:24:42;;;;;;;8.75;5.97;;;14.90;99.90;;;;;;5046347;28;20041;-58
2022/08/07 01:27:08;;;;;;;8.57;5.65;;;15.00;99.90;;;;;;5036916;28;20041;-60
2022/08/07 01:29:34;;;;;;;8.18;5.57;;;15.00;99.90;;;;;;5034247;28;20103;-58
2022/08/07 01:32:00;;;;;;;8.15;6.00;;;14.90;99.90;;;;;;5034117;28;20454;-58
2022/08/07 01:34:30;;;;;;;8.70;5.88;;;14.90;99.90;;;;;;5041658;28;20041;-58
2022/08/07 01:36:56;;;;;;;7.60;6.05;;;14.90;99.90;;;;;;5040104;28;20373;-59
2022/08/07 01:39:21;;;;;;;8.77;6.05;;;14.80;99.90;;;;;;5033913;28;20041;-58
2022/08/07 01:41:49;;;;;;;7.35;5.70;;;14.90;99.90;;;;;;5034554;28;20041;-58
2022/08/07 01:44:15;;;;;;;7.38;5.60;;;14.90;99.90;;;;;;5020202;28;20045;-58
2022/08/07 01:46:41;;;;;;;7.85;6.07;;;14.80;99.90;;;;;;5034352;28;20409;-58
2022/08/07 01:49:06;;;;;;;6.72;5.50;;;14.80;99.90;;;;;;5033874;28;20483;-57
2022/08/07 01:51:34;;;;;;;8.57;6.03;;;14.80;99.90;;;;;;5034082;28;20037;-58
2022/08/07 01:54:03;;;;;;;8.57;6.63;;;14.90;99.90;;;;;;5032838;28;20060;-58
2022/08/07 01:56:35;;;;;;;8.18;6.05;;;14.80;99.90;;;;;;5016279;28;20041;-58
2022/08/07 01:59:31;;;;;;;7.30;6.00;;;14.80;99.90;;;;;;5047514;28;20105;-58
2022/08/07 02:02:08;;;;;;;7.60;6.03;;;14.80;99.90;;;;;;5034103;28;20045;-58
2022/08/07 02:04:58;;;;;;;8.10;6.45;;;14.80;99.90;;;;;;5045658;28;20103;-58
2022/08/07 02:07:29;;;;;;;7.25;6.28;;;14.70;99.90;;;;;;5045798;28;20094;-58
2022/08/07 02:09:57;;;;;;;9.30;6.18;;;14.90;99.90;;;;;;5039625;28;20044;-58
2022/08/07 02:12:24;;;;;;;7.85;6.15;;;14.70;99.90;;;;;;5038834;28;20107;-58
2022/08/07 02:14:54;;;;;;;7.70;6.13;;;14.80;99.90;;;;;;5031696;28;20366;-58
2022/08/07 02:17:22;;;;;;;8.30;6.28;;;14.70;99.90;;;;;;5032965;28;20061;-58
2022/08/07 02:19:48;;;;;;;7.97;6.10;;;14.70;99.90;;;;;;5036592;28;20107;-58
2022/08/07 02:22:18;;;;;;;8.98;5.97;;;14.60;99.90;;;;;;5042599;28;20045;-58
2022/08/07 02:24:47;;;;;;;8.25;5.82;;;14.60;99.90;;;;;;5041355;28;20056;-58
2022/08/07 02:27:15;;;;;;;7.65;5.88;;;14.70;99.90;;;;;;5034856;28;20037;-58
2022/08/07 02:29:42;;;;;;;10.68;6.50;;;14.60;99.90;;;;;;5033471;28;20037;-58
2022/08/07 02:32:09;;;;;;;8.68;6.80;;;14.50;99.90;;;;;;5014884;28;20045;-59
2022/08/07 02:34:36;;;;;;;8.68;6.63;;;14.50;99.90;;;;;;5033295;28;20220;-59
2022/08/07 02:37:04;;;;;;;10.10;6.43;;;14.50;99.90;;;;;;5033215;28;20115;-59
2022/08/07 02:39:32;;;;;;;10.45;6.57;;;14.50;99.90;;;;;;5032696;28;20033;-58
2022/08/07 02:41:59;;;;;;;9.45;6.20;;;14.50;99.90;;;;;;5015535;28;20502;-59
2022/08/07 02:44:29;;;;;;;7.75;5.97;;;14.50;99.90;;;;;;5032497;28;20033;-58
2022/08/07 02:46:57;;;;;;;10.00;6.10;;;14.50;99.90;;;;;;5032957;28;20041;-58
2022/08/07 02:49:24;;;;;;;8.75;6.40;;;14.40;99.90;;;;;;5032627;28;20121;-59
2022/08/07 02:51:54;;;;;;;7.05;5.65;;;14.50;99.90;;;;;;5032943;28;20418;-58
2022/08/07 02:54:22;;;;;;;9.18;5.70;;;14.50;99.90;;;;;;5031687;28;20124;-59
2022/08/07 02:56:49;;;;;;;8.27;6.05;;;14.50;99.90;;;;;;5032840;28;20052;-58
2022/08/07 02:59:20;;;;;;;8.55;6.32;;;14.40;99.90;;;;;;5032038;28;20449;-58
2022/08/07 03:01:46;;;;;;;11.07;6.38;;;14.50;99.90;;;;;;5032770;28;20041;-58
2022/08/07 03:04:13;;;;;;;8.38;5.80;;;14.40;99.90;;;;;;5032019;28;20041;-58
2022/08/07 03:06:43;;;;;;;9.93;6.32;;;14.40;99.90;;;;;;5032779;28;20105;-58
2022/08/07 03:09:09;;;;;;;9.45;6.20;;;14.40;99.90;;;;;;5032584;28;20129;-58
2022/08/07 03:11:36;;;;;;;10.30;6.40;;;14.40;99.90;;;;;;5038094;28;20067;-59
2022/08/07 03:14:03;;;;;;;8.55;6.00;;;14.40;99.90;;;;;;5035072;28;20033;-58
2022/08/07 03:16:30;;;;;;;9.30;6.85;;;14.40;99.90;;;;;;5032094;28;20053;-58
2022/08/07 03:18:57;;;;;;;12.00;7.03;;;14.30;99.90;;;;;;5041031;28;20045;-58
2022/08/07 03:21:24;;;;;;;8.88;6.20;;;14.30;99.90;;;;;;5022203;28;20088;-58
2022/08/07 03:23:54;;;;;;;8.32;6.75;;;14.20;99.90;;;;;;5035719;28;20082;-59
2022/08/07 03:26:22;;;;;;;8.40;6.38;;;14.20;99.90;;;;;;5041566;28;20041;-59
2022/08/07 03:28:48;;;;;;;9.20;6.80;;;14.10;99.90;;;;;;5031922;28;20140;-59
2022/08/07 03:31:17;;;;;;;11.63;8.60;;;14.10;99.90;;;;;;5041703;28;20032;-59
2022/08/07 03:33:47;;;;;;;11.95;10.40;;;14.00;99.90;;;;;;5023413;28;20033;-58
2022/08/07 03:36:14;;;;;;;12.43;9.65;;;14.20;99.90;;;;;;5040523;28;20044;-58
2022/08/07 03:38:41;;;;;;;13.73;9.82;;;14.00;99.90;;;;;;5036969;28;20411;-58
2022/08/07 03:41:08;;;;;;;11.18;9.15;;;13.90;99.90;;;;;;5032239;28;20046;-59
2022/08/07 03:43:37;;;;;;;11.82;8.30;;;13.90;99.90;;;;;;5031185;28;20125;-59
2022/08/07 03:46:04;;;;;;;10.63;9.15;;;13.90;99.90;;;;;;5031998;28;20120;-58
2022/08/07 03:48:34;;;;;;;13.20;9.73;;;13.80;99.90;;;;;;5043233;28;20304;-58
2022/08/07 03:51:02;;;;;;;10.98;8.68;;;13.80;99.90;;;;;;5015929;28;20068;-58
2022/08/07 03:53:28;;;;;;;10.18;8.52;;;13.80;99.90;;;;;;5030586;28;20045;-58
2022/08/07 03:55:55;;;;;;;10.30;8.82;;;13.90;99.90;;;;;;5031732;28;20037;-58
2022/08/07 03:58:23;;;;;;;12.23;9.10;;;13.80;99.90;;;;;;5031203;28;20478;-58
2022/08/07 04:00:50;;;;;;;11.63;9.77;;;13.80;99.90;;;;;;5046418;28;20079;-58
2022/08/07 04:03:17;;;;;;;15.63;9.52;;;13.80;99.90;;;;;;5040988;28;20029;-58
2022/08/07 04:05:43;;;;;;;11.25;9.15;;;13.80;99.90;;;;;;5032164;28;20041;-58
2022/08/07 04:08:11;;;;;;;10.32;8.73;;;13.80;99.90;;;;;;5031071;28;20140;-58
2022/08/07 04:10:38;;;;;;;11.05;9.00;;;13.90;99.90;;;;;;5031331;28;20475;-58
2022/08/07 04:13:06;;;;;;;13.18;8.85;;;13.90;99.90;;;;;;5009523;28;20050;-58
2022/08/07 04:15:32;;;;;;;12.15;8.85;;;13.80;99.90;;;;;;5021870;28;20056;-58
2022/08/07 04:17:59;;;;;;;11.20;8.88;;;13.80;99.90;;;;;;5030931;28;20049;-59
2022/08/07 04:20:25;;;;;;;11.23;8.68;;;13.90;99.90;;;;;;5031476;28;20442;-58
2022/08/07 04:22:51;;;;;;;10.57;8.10;;;13.90;99.90;;;;;;5030246;28;20072;-58
2022/08/07 04:25:18;;;;;;;14.45;9.50;;;13.80;99.90;;;;;;5047492;28;20045;-58
2022/08/07 04:27:44;;;;;;;13.27;9.02;;;13.70;99.90;;;;;;5042576;28;20026;-58
2022/08/07 04:30:10;;;;;;;12.77;9.30;;;13.70;99.90;;;;;;5031209;28;20111;-58
2022/08/07 04:32:37;;;;;;;11.65;8.68;;;13.70;99.90;;;;;;5043966;28;20071;-58
2022/08/07 04:35:04;;;;;;;13.38;9.73;;;13.60;99.90;;;;;;5031478;28;20504;-59
2022/08/07 04:37:31;;;;;;;13.20;9.73;;;13.60;99.90;;;;;;5030701;28;20125;-58
2022/08/07 04:39:57;;;;;;;13.40;10.02;;;13.50;99.90;;;;;;5031230;28;20041;-58
2022/08/07 04:42:33;;;;;;;14.02;10.13;;;13.60;99.90;;;;;;5031231;28;20041;-58
2022/08/07 04:45:01;;;;;;;13.98;10.75;;;13.50;99.90;;;;;;5041697;28;20405;-58
2022/08/07 04:47:26;;;;;;;14.15;10.50;;;13.80;99.90;;;;;;5034039;28;20123;-58
2022/08/07 04:50:04;;;;;;;13.45;9.60;;;14.40;99.90;;;;;;5031443;28;20339;-59
2022/08/07 04:52:44;;;;;;;10.48;9.35;;;14.80;99.90;;;;;;5043445;28;20056;-58
2022/08/07 04:55:22;;;;;;;14.48;10.07;;;15.20;99.90;;;;;;5031496;28;20045;-59
2022/08/07 04:58:07;;;;;;;14.77;11.07;;;15.40;99.90;;;;;;5034900;28;20041;-59
2022/08/07 05:00:52;;;;;;;14.98;10.02;;;15.60;99.90;;;;;;5038578;28;20053;-59
2022/08/07 05:03:37;;;;;;;12.75;9.90;;;15.70;99.90;;;;;;5020209;28;20056;-59
2022/08/07 05:06:06;;;;;;;13.10;9.73;;;15.60;99.90;;;;;;5033161;28;20432;-58
2022/08/07 05:08:47;;;;;;;12.25;9.65;;;15.70;99.90;;;;;;5050568;28;20056;-59
2022/08/07 05:11:26;;;;;;;12.18;9.25;;;16.20;99.90;;;;;;5035041;28;20060;-59
2022/08/07 05:13:58;;;;;;;11.10;8.07;;;16.70;99.90;;;;;;5040689;28;20178;-59
2022/08/07 05:16:26;;;;;;;11.25;8.93;;;17.40;99.90;;;;;;5047201;28;20445;-59
2022/08/07 05:18:57;;;;;;;11.13;8.30;;;18.10;99.90;;;;;;5039758;28;20044;-59
2022/08/07 05:21:26;;;;;;;10.48;8.40;;;18.60;99.90;;;;;;5049017;28;20041;-58
2022/08/07 05:24:01;;;;;;;11.43;8.23;;;19.10;99.90;;;;;;5034612;28;20444;-58
2022/08/07 05:26:31;;;;;;;11.85;8.13;;;19.60;99.90;;;;;;5009628;28;20462;-59
2022/08/07 05:29:00;;;;;;;12.15;8.32;;;20.30;99.90;;;;;;5029750;28;20632;-59
2022/08/07 05:31:37;;;;;;;10.65;8.10;;;20.70;99.90;;;;;;5039835;28;20041;-59
2022/08/07 05:34:05;;;;;;;10.90;8.70;;;21.10;99.90;;;;;;5032971;28;20040;-60
2022/08/07 05:36:32;;;;;;;8.95;7.38;;;21.10;99.90;;;;;;5030866;28;20064;-59
2022/08/07 05:38:59;;;;;;;10.68;7.88;;;21.00;99.90;;;;;;5030154;28;20366;-60
2022/08/07 05:41:25;;;;;;;13.38;8.43;;;21.20;99.90;;;;;;5023475;28;20036;-60
2022/08/07 05:43:54;;;;;;;10.55;7.97;;;21.40;99.90;;;;;;5040797;28;20307;-59
2022/08/07 05:46:20;;;;;;;12.20;8.57;;;21.80;99.90;;;;;;5029019;28;20041;-60
2022/08/07 05:48:51;;;;;;;10.32;8.48;;;22.40;99.70;;;;;;5033935;28;20033;-60
2022/08/07 05:51:17;;;;;;;11.20;8.23;;;22.70;99.20;;;;;;5034063;28;20099;-58
2022/08/07 05:53:43;;;;;;;11.07;8.30;;;22.80;98.80;;;;;;4984133;28;20450;-58
2022/08/07 05:56:11;;;;;;;10.15;7.30;;;23.00;98.40;;;;;;5034112;28;20094;-59
2022/08/07 05:58:38;;;;;;;12.57;8.27;;;23.30;98.20;;;;;;5033879;28;20056;-61
2022/08/07 06:01:08;;;;;;;10.20;7.65;;;23.70;97.80;;;;;;5033998;28;20045;-58
2022/08/07 06:03:36;;;;;;;10.50;7.63;;;23.90;97.30;;;;;;5033199;28;20114;-59
2022/08/07 06:06:02;;;;;;;10.65;8.30;;;24.10;97.00;;;;;;5049707;28;20040;-59
2022/08/07 06:08:28;;;;;;;11.15;8.68;;;24.20;96.60;;;;;;5045405;28;20022;-59
2022/08/07 06:10:54;;;;;;;9.77;7.82;;;24.20;96.40;;;;;;5033973;28;20092;-59
2022/08/07 06:13:20;;;;;;;9.75;7.93;;;24.30;96.30;;;;;;5049512;28;20133;-59
2022/08/07 06:15:48;;;;;;;10.07;7.80;;;24.60;96.20;;;;;;5041774;28;20041;-59
2022/08/07 06:18:14;;;;;;;12.32;8.25;;;24.70;95.90;;;;;;5033602;28;20056;-63
2022/08/07 06:20:42;;;;;;;9.68;7.93;;;24.60;95.70;;;;;;5033967;28;20041;-59
2022/08/07 06:23:09;;;;;;;9.65;7.60;;;24.80;95.60;;;;;;5041870;28;20052;-60
2022/08/07 06:25:38;;;;;;;9.57;8.57;;;25.00;95.40;;;;;;5018074;28;20039;-60
2022/08/07 06:28:05;;;;;;;11.18;8.00;;;24.80;95.30;;;;;;5042164;28;20041;-59
2022/08/07 06:30:33;;;;;;;12.07;7.78;;;24.70;95.30;;;;;;5047695;28;20041;-59
2022/08/07 06:33:00;;;;;;;9.10;7.95;;;24.70;95.40;;;;;;5015170;28;20095;-60
2022/08/07 06:35:26;;;;;;;11.13;8.18;;;24.70;95.40;;;;;;5047574;28;20080;-60
2022/08/07 06:37:52;;;;;;;8.85;7.50;;;24.70;95.30;;;;;;5023530;28;20033;-59
2022/08/07 06:40:18;;;;;;;9.68;7.00;;;24.50;95.30;;;;;;5053282;28;20045;-60
2022/08/07 06:42:47;;;;;;;8.70;7.80;;;24.60;95.40;;;;;;5032792;28;20030;-59
2022/08/07 06:45:15;;;;;;;9.88;7.68;;;25.10;95.20;;;;;;5028380;28;20545;-60
2022/08/07 06:47:41;;;;;;;9.98;7.82;;;25.10;95.10;;;;;;5048388;28;20095;-60
2022/08/07 06:50:07;;;;;;;9.63;6.95;;;25.20;95.00;;;;;;5033075;28;20092;-60
2022/08/07 06:52:38;;;;;;;8.30;6.72;;;25.30;94.90;;;;;;5032178;28;20040;-60
2022/08/07 06:55:10;;;;;;;8.27;7.25;;;25.40;94.70;;;;;;5042906;28;20496;-63
2022/08/07 06:57:38;;;;;;;9.25;7.22;;;25.60;94.60;;;;;;5038538;28;20060;-61
2022/08/07 07:00:05;;;;;;;7.68;6.40;;;25.70;94.10;;;;;;5044105;28;20053;-59
2022/08/07 07:02:31;;;;;;;7.97;6.05;;;25.50;94.20;;;;;;5032000;28;20044;-59
2022/08/07 07:04:57;;;;;;;6.90;5.88;;;25.60;94.40;;;;;;5033052;28;20034;-59
2022/08/07 07:07:23;;;;;;;7.57;5.47;;;25.70;93.90;;;;;;5015095;28;20067;-59
2022/08/07 07:09:49;;;;;;;8.30;5.85;;;25.80;93.70;;;;;;5037701;28;20418;-59
2022/08/07 07:12:24;;;;;;;8.20;5.97;;;25.90;93.50;;;;;;5041894;28;20103;-60
2022/08/07 07:14:58;;;;;;;6.40;4.93;;;25.90;93.40;;;;;;5036902;28;20051;-60
2022/08/07 07:17:32;;;;;;;8.55;5.18;;;25.80;93.10;;;;;;5040338;28;20049;-59
2022/08/07 07:20:01;;;;;;;6.55;4.88;;;25.40;92.60;;;;;;5032595;28;20140;-60
2022/08/07 07:22:28;;;;;;;7.55;5.10;;;25.60;93.10;;;;;;5031526;28;20038;-61
2022/08/07 07:24:54;;;;;;;7.55;5.10;;;25.60;92.80;;;;;;5049317;28;20040;-60
2022/08/07 07:27:23;;;;;;;7.35;5.22;;;25.40;92.90;;;;;;5032472;28;20478;-60
2022/08/07 07:29:55;;;;;;;7.95;5.07;;;25.30;92.80;;;;;;5014913;28;20045;-60
2022/08/07 07:32:23;;;;;;;5.47;4.03;;;25.10;93.10;;;;;;5035971;28;20040;-59
2022/08/07 07:34:54;;;;;;;6.07;4.20;;;24.80;93.50;;;;;;5032244;28;20045;-59
2022/08/07 07:37:23;;;;;;;7.65;4.20;;;24.50;93.70;;;;;;5013927;28;20037;-59
2022/08/07 07:39:52;;;;;;;6.05;4.32;;;24.30;94.00;;;;;;5032163;28;20045;-59
2022/08/07 07:42:25;;;;;;;8.55;4.38;;;24.00;94.20;;;;;;5032080;28;20048;-59
2022/08/07 07:44:52;;;;;;;5.97;4.40;;;23.50;94.60;;;;;;5032234;28;20127;-59
2022/08/07 07:47:19;;;;;;;6.40;3.80;;;23.20;94.90;;;;;;5031415;28;20486;-60
2022/08/07 07:49:47;;;;;;;6.28;3.85;;;23.10;95.10;;;;;;5031944;28;20045;-59
2022/08/07 07:52:14;;;;;;;6.20;3.50;;;22.90;95.40;;;;;;5031914;28;20045;-59
2022/08/07 07:54:42;;;;;;;4.68;3.50;;;22.90;95.40;;;;;;5030639;28;20033;-59
2022/08/07 07:57:09;;;;;;;4.93;3.22;;;22.90;95.60;;;;;;5031078;28;20041;-60
2022/08/07 07:59:37;;;;;;;6.22;3.28;;;22.70;95.60;;;;;;5031484;28;20144;-59
2022/08/07 08:02:04;;;;;;;6.85;3.78;;;22.60;95.70;;;;;;5031794;28;20033;-59
2022/08/07 08:04:31;;;;;;;7.65;4.35;;;22.40;95.90;;;;;;5030077;28;20049;-60
2022/08/07 08:06:59;;;;;;;5.65;3.90;;;22.20;96.00;;;;;;5030985;28;20355;-59
2022/08/07 08:09:27;;;;;;;5.85;3.72;;;22.40;96.00;;;;;;5031170;28;20549;-59
2022/08/07 08:11:53;;;;;;;5.78;3.58;;;22.20;96.00;;;;;;5039240;28;20029;-59
2022/08/07 08:14:19;;;;;;;5.40;3.25;;;22.30;96.00;;;;;;5034508;28;20047;-59
2022/08/07 08:16:45;;;;;;;6.00;3.45;;;22.40;96.00;;;;;;5030784;28;20050;-60
2022/08/07 08:19:15;;;;;;;6.95;3.80;;;22.60;95.90;;;;;;5031348;28;20552;-59
2022/08/07 08:27:27;;;;;;;5.88;3.33;;;22.80;95.90;;;;;;5045292;28;20049;-60
2022/08/07 08:30:04;;;;;;;5.18;2.88;;;22.70;96.10;;;;;;5031325;28;20084;-59
2022/08/07 08:32:35;;;;;;;4.78;2.78;;;22.50;96.30;;;;;;5030116;28;20052;-60
2022/08/07 08:35:01;;;;;;;4.63;2.38;;;22.30;96.30;;;;;;5031006;28;20041;-60
2022/08/07 08:37:29;;;;;;;5.38;2.92;;;22.20;96.50;;;;;;5034773;28;20453;-59
2022/08/07 08:39:56;;;;;;;4.70;2.53;;;22.10;96.70;;;;;;5040451;28;20366;-59
2022/08/07 08:42:43;;;;;;;4.82;2.63;;;22.00;96.60;;;;;;5030525;28;20045;-59
2022/08/07 08:45:24;;;;;;;3.67;2.47;;;22.20;96.60;;;;;;5022798;28;20334;-59
2022/08/07 08:47:58;;;;;;;4.57;2.10;;;22.10;96.50;;;;;;5030467;28;20041;-59
2022/08/07 08:50:36;;;;;;;3.75;2.00;;;22.00;96.50;;;;;;5031045;28;20045;-59
2022/08/07 08:53:07;;;;;;;3.80;2.10;;;22.00;96.60;;;;;;5016984;28;20080;-58
2022/08/07 08:56:03;;;;;;;3.92;2.10;;;21.80;96.50;;;;;;5031236;28;20052;-58
2022/08/07 08:58:43;;;;;;;6.38;2.20;;;21.50;96.60;;;;;;5004104;28;20061;-59
2022/08/07 09:01:49;;;;;;;2.63;2.05;;;21.40;96.70;;;;;;5031109;28;20056;-59
2022/08/07 09:04:39;;;;;;;3.33;2.20;;;21.50;96.50;;;;;;5006279;28;20153;-59
2022/08/07 09:07:10;;;;;;;4.40;2.38;;;21.50;96.60;;;;;;5030626;28;20441;-58
2022/08/07 09:10:01;;;;;;;3.95;2.17;;;21.50;96.70;;;;;;5030780;28;20082;-59
2022/08/07 09:12:45;;;;;;;3.78;2.35;;;21.60;96.80;;;;;;5030516;28;20065;-59
2022/08/07 09:15:37;;;;;;;3.00;2.20;;;21.50;96.90;;;;;;5019613;28;20041;-59
2022/08/07 09:18:30;;;;;;;2.90;2.22;;;21.70;96.80;;;;;;5036567;28;20060;-59
2022/08/07 09:21:30;;;;;;;3.30;2.00;;;21.40;97.10;;;;;;5054660;28;20087;-59
2022/08/07 09:24:33;;;;;;;4.20;1.90;;;21.40;96.80;;;;;;5026498;28;20042;-60
2022/08/07 09:27:18;;;;;;;3.08;2.10;;;21.40;97.10;;;;;;5034099;28;20037;-59
2022/08/07 09:30:03;;;;;;;3.08;2.30;;;21.60;97.30;;;;;;5034695;28;20072;-59
2022/08/07 09:32:47;;;;;;;4.28;2.42;;;21.70;97.50;;;;;;5039145;28;20056;-60
2022/08/07 09:35:42;;;;;;;4.13;2.22;;;21.70;97.10;;;;;;5034806;28;20072;-59
2022/08/07 09:38:30;;;;;;;4.60;2.00;;;21.60;97.10;;;;;;5006432;28;20053;-59
2022/08/07 09:41:23;;;;;;;5.18;2.25;;;21.80;97.00;;;;;;5030498;28;20120;-58
2022/08/07 09:44:01;;;;;;;4.53;2.53;;;21.70;97.10;;;;;;5033428;28;20048;-59
2022/08/07 09:46:47;;;;;;;3.05;2.00;;;21.70;97.10;;;;;;5034042;28;20041;-58
2022/08/07 09:49:44;;;;;;;2.63;2.00;;;21.70;96.80;;;;;;5034417;28;20052;-58
2022/08/07 09:52:25;;;;;;;2.50;1.77;;;21.70;96.50;;;;;;5034350;28;20646;-59
2022/08/07 09:55:24;;;;;;;3.03;2.00;;;21.70;97.00;;;;;;5033316;28;20049;-58
2022/08/07 09:58:20;;;;;;;3.33;2.15;;;21.80;96.40;;;;;;5033636;28;20366;-57
2022/08/07 10:01:07;;;;;;;3.88;2.33;;;21.90;96.60;;;;;;5033969;28;20458;-58
2022/08/07 10:04:08;;;;;;;4.78;2.50;;;21.90;96.60;;;;;;5033126;28;20151;-58
2022/08/07 10:07:03;;;;;;;3.30;2.20;;;21.90;96.50;;;;;;5019860;28;20378;-58
2022/08/07 10:09:49;;;;;;;8.73;2.28;;;21.90;96.30;;;;;;5033916;28;20046;-59
2022/08/07 10:13:00;;;;;;;6.03;2.80;;;22.00;96.40;;;;;;5027340;28;20044;-58
2022/08/07 10:15:40;;;;;;;3.83;2.10;;;22.00;96.60;;;;;;5044569;28;20052;-59
2022/08/07 10:18:14;;;;;;;5.68;2.40;;;22.00;96.40;;;;;;5047089;28;20055;-58
2022/08/07 10:21:13;;;;;;;2.75;2.17;;;22.10;96.50;;;;;;5033099;28;20053;-59
2022/08/07 10:24:17;;;;;;;3.05;2.38;;;22.00;96.00;;;;;;5024645;28;20029;-58
2022/08/07 10:27:10;;;;;;;4.40;2.33;;;22.20;95.90;;;;;;5038811;28;20045;-59
2022/08/07 10:29:59;;;;;;;4.65;2.30;;;22.20;96.30;;;;;;5023293;28;20103;-58
2022/08/07 10:32:40;;;;;;;5.32;2.40;;;22.10;96.40;;;;;;5033039;28;20041;-59
2022/08/07 10:35:08;;;;;;;3.75;2.75;;;22.10;96.50;;;;;;5025526;28;20351;-60
2022/08/07 10:37:44;;;;;;;3.58;2.50;;;22.10;96.50;;;;;;5032784;28;20064;-60
2022/08/07 10:40:24;;;;;;;4.75;2.40;;;22.10;96.10;;;;;;5033289;28;20085;-60
2022/08/07 10:43:29;;;;;;;3.80;2.25;;;22.20;95.80;;;;;;5001488;28;20062;-59
2022/08/07 10:45:59;;;;;;;5.03;2.20;;;22.30;96.10;;;;;;5033381;28;20049;-59
2022/08/07 10:48:56;;;;;;;4.50;2.53;;;22.40;96.20;;;;;;5033155;28;20044;-60
2022/08/07 10:51:33;;;;;;;2.92;2.42;;;22.50;96.30;;;;;;5020000;28;20037;-60
2022/08/07 10:54:11;;;;;;;5.53;2.25;;;22.70;95.40;;;;;;5032064;28;20037;-59
2022/08/07 10:57:32;;;;;;;4.00;2.60;;;22.70;94.80;;;;;;5023236;28;20048;-59
2022/08/07 11:00:02;;;;;;;3.85;2.70;;;22.60;94.80;;;;;;4971742;28;20456;-59
2022/08/07 11:02:41;;;;;;;4.03;2.80;;;22.60;94.90;;;;;;4970987;28;20046;-59
2022/08/07 11:05:40;;;;;;;4.32;2.90;;;22.50;95.00;;;;;;5002287;28;20143;-59
2022/08/07 11:08:18;;;;;;;3.50;2.53;;;22.50;94.90;;;;;;5031398;28;20050;-59
2022/08/07 11:11:06;;;;;;;3.85;2.53;;;22.50;95.10;;;;;;5045182;28;20203;-59
2022/08/07 11:13:46;;;;;;;2.80;2.35;;;22.50;94.70;;;;;;5027869;28;20033;-58
2022/08/07 11:16:34;;;;;;;3.15;2.33;;;22.60;94.70;;;;;;5036973;28;20062;-59
2022/08/07 11:19:04;;;;;;;4.20;2.70;;;22.70;94.50;;;;;;5032258;28;20092;-59
2022/08/07 11:21:35;;;;;;;3.67;2.20;;;22.80;94.70;;;;;;5032190;28;20036;-59
2022/08/07 11:24:32;;;;;;;3.22;2.38;;;22.90;94.80;;;;;;5023333;28;20041;-59
2022/08/07 11:27:20;;;;;;;3.35;2.47;;;23.10;94.60;;;;;;5035847;28;20481;-58
2022/08/07 11:30:04;;;;;;;5.13;2.40;;;23.10;94.40;;;;;;5031878;28;20042;-59
2022/08/07 11:32:55;;;;;;;3.80;2.28;;;23.20;94.40;;;;;;5014438;28;20045;-59
2022/08/07 11:35:27;;;;;;;4.65;2.45;;;23.10;94.40;;;;;;5009011;28;20376;-59
2022/08/07 11:38:08;;;;;;;3.30;2.05;;;23.10;94.50;;;;;;5030467;28;20045;-59
2022/08/07 11:41:09;;;;;;;3.05;2.20;;;23.10;94.40;;;;;;5015608;28;20099;-58
2022/08/07 11:43:45;;;;;;;3.63;2.60;;;23.10;94.40;;;;;;5027087;28;20124;-59
2022/08/07 11:46:37;;;;;;;2.45;2.00;;;23.10;94.10;;;;;;5018340;28;20042;-59
2022/08/07 11:49:28;;;;;;;3.22;2.13;;;23.20;94.00;;;;;;5031725;28;20052;-59
2022/08/07 11:52:15;;;;;;;3.65;2.50;;;23.30;94.00;;;;;;5031489;28;20377;-58
2022/08/07 11:55:04;;;;;;;4.28;2.72;;;23.30;94.10;;;;;;5034396;28;20087;-58
2022/08/07 11:57:51;;;;;;;3.83;2.10;;;23.40;94.10;;;;;;5036053;28;20148;-59
2022/08/07 12:00:29;;;;;;;3.10;2.10;;;23.50;93.90;;;;;;5031747;28;20052;-59
2022/08/07 12:03:16;;;;;;;3.22;2.00;;;23.50;93.70;;;;;;5030038;28;20092;-58
2022/08/07 12:06:16;;;;;;;2.50;2.10;;;23.50;93.50;;;;;;5031410;28;20069;-59
2022/08/07 12:09:08;;;;;;;5.50;2.67;;;23.60;93.40;;;;;;4988625;28;20288;-58
2022/08/07 12:11:43;;;;;;;4.00;2.28;;;23.50;93.50;;;;;;5041795;28;20064;-59
2022/08/07 12:14:19;;;;;;;3.72;2.22;;;23.50;93.70;;;;;;5031356;28;20029;-59
2022/08/07 12:16:50;;;;;;;3.35;2.30;;;23.60;94.00;;;;;;5030309;28;20490;-58
2022/08/07 12:19:40;;;;;;;4.40;2.42;;;23.70;94.20;;;;;;5031312;28;20049;-59
2022/08/07 12:22:16;;;;;;;5.30;2.70;;;23.70;94.60;;;;;;5019194;28;20049;-59
2022/08/07 12:28:11;;;;;;;2.90;2.10;;;23.70;95.40;;;;;;5022347;28;20156;-58
2022/08/07 12:30:39;;;;;;;4.38;2.72;;;23.70;95.00;;;;;;5031079;28;20037;-59
2022/08/07 12:33:11;;;;;;;5.60;2.60;;;23.80;94.70;;;;;;5030096;28;20041;-58
2022/08/07 12:35:38;;;;;;;4.82;2.35;;;23.80;95.10;;;;;;5030577;28;20033;-59
2022/08/07 12:38:06;;;;;;;4.03;2.78;;;23.70;95.10;;;;;;5022182;28;20071;-59
2022/08/07 12:40:35;;;;;;;4.80;2.80;;;23.80;95.40;;;;;;5035397;28;20064;-59
2022/08/07 12:43:06;;;;;;;6.03;2.80;;;23.90;95.50;;;;;;5034485;28;20478;-59
2022/08/07 12:45:54;;;;;;;5.50;2.42;;;23.90;95.40;;;;;;5030811;28;20378;-59
2022/08/07 12:48:34;;;;;;;4.60;2.15;;;23.80;95.10;;;;;;5023089;28;20113;-58
2022/08/07 12:51:23;;;;;;;3.50;2.33;;;23.70;94.60;;;;;;5035668;28;20037;-60
2022/08/07 12:54:05;;;;;;;5.50;2.90;;;23.70;95.10;;;;;;5033169;28;20541;-59
2022/08/07 12:56:41;;;;;;;6.13;2.85;;;23.50;95.80;;;;;;5029922;28;20053;-59
2022/08/07 12:59:10;;;;;;;4.18;2.50;;;23.50;95.60;;;;;;5040762;28;20037;-59
2022/08/07 13:02:04;;;;;;;4.40;2.92;;;23.60;95.70;;;;;;5047946;28;20068;-59
2022/08/07 13:05:07;;;;;;;3.92;2.55;;;23.90;95.40;;;;;;5034166;28;20089;-59
2022/08/07 13:07:54;;;;;;;4.30;2.45;;;24.10;95.30;;;;;;5034069;28;20307;-58
2022/08/07 13:10:59;;;;;;;4.35;2.33;;;24.10;95.00;;;;;;5035007;28;20053;-59
2022/08/07 13:13:52;;;;;;;5.53;2.90;;;24.10;94.50;;;;;;5020782;28;20059;-59
2022/08/07 13:16:36;;;;;;;3.22;2.58;;;24.30;95.00;;;;;;5016326;28;20060;-59
2022/08/07 13:19:15;;;;;;;5.50;2.92;;;24.40;94.90;;;;;;5044527;28;20037;-60
2022/08/07 13:21:45;;;;;;;4.60;2.78;;;24.50;94.70;;;;;;5036060;28;20048;-59
2022/08/07 13:24:20;;;;;;;4.18;2.90;;;24.60;94.60;;;;;;5045107;28;20036;-59
2022/08/07 13:27:03;;;;;;;6.25;3.00;;;24.60;94.40;;;;;;5039913;28;20121;-59